createdAt,value
2022-11-15T00:04:37.554Z,101104.25
2022-11-15T00:09:43.397Z,101091.66
2022-11-15T00:14:49.489Z,101088.69
2022-11-15T00:19:51.866Z,101083.25
2022-11-15T00:24:53.751Z,101074.59
2022-11-15T00:29:56.796Z,101070.78
2022-11-15T00:34:59.167Z,101077.34
2022-11-15T00:40:00.903Z,101071.09
2022-11-15T00:45:04.759Z,101055.44
2022-11-15T00:50:12.958Z,101066.25
2022-11-15T00:55:18.563Z,101062.41
2022-11-15T01:00:21.704Z,101047.50
2022-11-15T01:05:24.066Z,101056.47
2022-11-15T01:10:26.165Z,101049.19
2022-11-15T01:15:29.612Z,101043.88
2022-11-15T01:20:31.739Z,101035.75
2022-11-15T01:25:33.875Z,101025.88
2022-11-15T01:30:38.446Z,101028.06
2022-11-15T01:35:40.967Z,101016.81
2022-11-15T01:40:43.114Z,101021.09
2022-11-15T01:45:50.163Z,101009.59
2022-11-15T01:50:52.387Z,101002.41
2022-11-15T01:55:55.118Z,100992.88
2022-11-15T02:00:58.238Z,100985.28
2022-11-15T02:06:00.724Z,100993.13
2022-11-15T02:11:05.436Z,100984.78
2022-11-15T02:16:19.352Z,100984.06
2022-11-15T02:21:34.832Z,100984.06
2022-11-15T02:27:10.092Z,100972.25
2022-11-15T02:32:20.590Z,100962.16
2022-11-15T02:37:31.998Z,100965.84
2022-11-15T02:42:38.158Z,100953.63
2022-11-15T02:47:44.634Z,100942.25
2022-11-15T02:52:47.613Z,100955.97
2022-11-15T02:57:56.844Z,100944.25
2022-11-15T03:03:20.632Z,100942.69
2022-11-15T03:08:32.610Z,100938.13
2022-11-15T03:13:40.699Z,100938.25
2022-11-15T03:18:47.360Z,100938.31
2022-11-15T03:23:52.224Z,100934.66
2022-11-15T03:28:58.853Z,100935.50
2022-11-15T03:34:06.410Z,100933.56
2022-11-15T03:39:10.198Z,100933.66
2022-11-15T03:44:17.761Z,100925.91
2022-11-15T03:49:26.978Z,100925.84
2022-11-15T03:54:29.393Z,100928.44
2022-11-15T03:59:31.679Z,100930.84
2022-11-15T04:04:35.273Z,100927.28
2022-11-15T04:09:37.134Z,100922.06
2022-11-15T04:14:39.218Z,100927.69
2022-11-15T04:19:42.807Z,100917.78
2022-11-15T04:24:45.185Z,100910.81
2022-11-15T04:29:47.494Z,100918.69
2022-11-15T04:34:50.962Z,100910.97
2022-11-15T04:39:53.095Z,100896.94
2022-11-15T04:44:55.144Z,100894.09
2022-11-15T04:49:58.695Z,100901.88
2022-11-15T04:55:06.735Z,100892.91
2022-11-15T05:00:14.100Z,100895.97
2022-11-15T05:05:17.869Z,100898.34
2022-11-15T05:10:20.143Z,100914.66
2022-11-15T05:15:22.370Z,100919.72
2022-11-15T05:20:25.709Z,100922.78
2022-11-15T05:25:28.576Z,100926.13
2022-11-15T05:30:31.567Z,100916.13
2022-11-15T05:35:39.969Z,100914.44
2022-11-15T05:40:42.236Z,100895.34
2022-11-15T05:45:44.116Z,100906.84
2022-11-15T05:50:48.693Z,100899.84
2022-11-15T05:55:51.176Z,100892.84
2022-11-15T06:00:53.128Z,100888.31
2022-11-15T06:05:57.614Z,100892.63
2022-11-15T06:11:04.955Z,100898.53
2022-11-15T06:16:07.373Z,100902.19
2022-11-15T06:21:10.785Z,100907.31
2022-11-15T06:26:12.806Z,100912.47
2022-11-15T06:31:15.115Z,100924.63
2022-11-15T06:36:18.626Z,100913.06
2022-11-15T06:41:20.731Z,100913.34
2022-11-15T06:46:22.921Z,100915.13
2022-11-15T06:51:26.451Z,100928.41
2022-11-15T06:56:28.193Z,100932.75
2022-11-15T07:01:30.656Z,100936.25
2022-11-15T07:06:34.318Z,100934.97
2022-11-15T07:11:36.569Z,100936.03
2022-11-15T07:16:38.632Z,100931.00
2022-11-15T07:21:42.162Z,100944.34
2022-11-15T07:26:44.496Z,100941.91
2022-11-15T07:31:46.644Z,100944.66
2022-11-15T07:36:49.944Z,100946.53
2022-11-15T07:41:51.948Z,100935.34
2022-11-15T07:46:54.205Z,100935.97
2022-11-15T07:51:57.567Z,100937.25
2022-11-15T07:57:04.042Z,100931.41
2022-11-15T08:02:10.531Z,100933.53
2022-11-15T08:07:14.475Z,100925.13
2022-11-15T08:12:16.649Z,100921.09
2022-11-15T08:17:18.823Z,100939.75
2022-11-15T08:22:22.519Z,100944.53
2022-11-15T08:27:24.919Z,100937.13
2022-11-15T08:32:27.109Z,100925.06
2022-11-15T08:37:30.707Z,100927.16
2022-11-15T08:42:32.458Z,100926.59
2022-11-15T08:47:35.389Z,100917.97
2022-11-15T08:52:38.848Z,100919.88
2022-11-15T08:57:41.293Z,100907.69
2022-11-15T09:02:43.397Z,100922.72
2022-11-15T09:07:47.096Z,100933.41
2022-11-15T09:12:49.361Z,100930.78
2022-11-15T09:17:51.493Z,100929.03
2022-11-15T09:22:55.003Z,100922.00
2022-11-15T09:27:58.178Z,100929.97
2022-11-15T09:33:00.336Z,100935.19
2022-11-15T09:38:04.695Z,100932.44
2022-11-15T09:43:21.175Z,100935.81
2022-11-15T09:48:43.922Z,100931.81
2022-11-15T09:59:26.018Z,100914.44
2022-11-15T10:04:29.051Z,100912.31
2022-11-15T10:09:39.209Z,100895.31
2022-11-15T10:14:43.000Z,100895.22
2022-11-15T10:19:56.570Z,100881.50
2022-11-15T10:25:15.936Z,100880.56
2022-11-15T10:30:19.651Z,100876.97
2022-11-15T10:35:26.079Z,100861.16
2022-11-15T10:40:29.605Z,100855.47
2022-11-15T10:45:34.131Z,100834.16
2022-11-15T10:50:35.805Z,100832.59
2022-11-15T10:55:41.813Z,100830.63
2022-11-15T11:00:43.856Z,100823.91
2022-11-15T11:05:46.079Z,100814.50
2022-11-15T11:11:01.339Z,100808.69
2022-11-15T11:16:20.571Z,100799.78
2022-11-15T11:21:36.778Z,100803.22
2022-11-15T11:26:57.103Z,100800.69
2022-11-15T11:32:08.976Z,100795.53
2022-11-15T11:37:19.319Z,100787.50
2022-11-15T11:42:34.944Z,100780.19
2022-11-15T11:47:41.465Z,100766.00
2022-11-15T11:52:54.021Z,100758.88
2022-11-15T11:58:06.004Z,100756.03
2022-11-15T12:03:13.910Z,100755.28
2022-11-15T12:08:30.521Z,100758.91
2022-11-15T12:13:35.947Z,100746.91
2022-11-15T12:18:38.358Z,100743.25
2022-11-15T12:23:45.171Z,100740.91
2022-11-15T12:29:06.919Z,100741.56
2022-11-15T12:34:41.671Z,100739.22
2022-11-15T12:40:06.221Z,100724.06
2022-11-15T12:45:27.751Z,100728.75
2022-11-15T12:50:55.133Z,100716.88
2022-11-15T12:56:19.093Z,100706.84
2022-11-15T13:02:11.781Z,100703.38
2022-11-15T13:07:58.781Z,100690.09
2022-11-15T13:13:02.629Z,100694.19
2022-11-15T13:18:41.235Z,100694.34
2022-11-15T13:23:46.767Z,100686.31
2022-11-15T13:28:50.866Z,100686.66
2022-11-15T13:33:56.123Z,100681.31
2022-11-15T13:39:03.080Z,100679.81
2022-11-15T13:44:19.986Z,100664.00
2022-11-15T13:49:30.967Z,100653.94
2022-11-15T13:54:37.745Z,100666.06
2022-11-15T13:59:47.719Z,100661.31
2022-11-15T14:04:52.863Z,100663.38
2022-11-15T14:09:56.389Z,100661.72
2022-11-15T14:14:59.383Z,100670.41
2022-11-15T14:20:01.907Z,100656.94
2022-11-15T14:25:16.471Z,100662.00
2022-11-15T14:30:19.097Z,100664.22
2022-11-15T14:35:23.556Z,100666.66
2022-11-15T14:40:27.454Z,100670.75
2022-11-15T14:45:29.879Z,100660.75
2022-11-15T14:50:34.034Z,100660.38
2022-11-15T14:55:37.481Z,100655.94
2022-11-15T15:00:41.863Z,100642.81
2022-11-15T15:05:45.278Z,100635.50
2022-11-15T15:10:48.975Z,100644.53
2022-11-15T15:15:52.034Z,100634.91
2022-11-15T15:20:57.338Z,100634.66
2022-11-15T15:26:00.919Z,100636.84
2022-11-15T15:31:03.092Z,100632.75
2022-11-15T15:36:05.491Z,100615.09
2022-11-15T15:41:11.961Z,100622.41
2022-11-15T15:46:16.536Z,100624.31
2022-11-15T15:51:20.693Z,100618.13
2022-11-15T15:56:25.093Z,100600.72
2022-11-15T16:01:27.535Z,100616.81
2022-11-15T16:06:36.978Z,100599.09
2022-11-15T16:11:40.511Z,100606.25
2022-11-15T16:16:42.278Z,100599.41
2022-11-15T16:21:44.377Z,100589.75
2022-11-15T16:26:48.807Z,100593.44
2022-11-15T16:31:50.907Z,100587.38
2022-11-15T16:36:54.218Z,100588.34
2022-11-15T16:41:57.685Z,100584.06
2022-11-15T16:47:00.896Z,100575.03
2022-11-15T16:52:02.600Z,100566.19
2022-11-15T16:57:05.847Z,100567.94
2022-11-15T17:02:12.172Z,100560.03
2022-11-15T17:07:13.965Z,100566.16
2022-11-15T17:12:17.109Z,100572.38
2022-11-15T17:17:19.021Z,100572.41
2022-11-15T17:22:21.242Z,100573.19
2022-11-15T17:27:24.754Z,100565.31
2022-11-15T17:32:26.743Z,100554.81
2022-11-15T17:37:28.582Z,100556.59
2022-11-15T17:42:32.017Z,100553.09
2022-11-15T17:47:34.010Z,100562.03
2022-11-15T17:52:35.723Z,100561.22
2022-11-15T17:57:38.961Z,100561.28
2022-11-15T18:02:40.976Z,100565.78
2022-11-15T18:07:42.780Z,100559.66
2022-11-15T18:12:45.844Z,100549.22
2022-11-15T18:17:47.684Z,100560.69
2022-11-15T18:22:52.545Z,100555.44
2022-11-15T18:27:56.016Z,100551.97
2022-11-15T18:32:58.227Z,100558.19
2022-11-15T18:37:59.968Z,100549.44
2022-11-15T18:43:03.804Z,100553.88
2022-11-15T18:48:06.113Z,100546.84
2022-11-15T18:53:07.925Z,100539.78
2022-11-15T18:58:11.059Z,100542.47
2022-11-15T19:03:12.864Z,100546.03
2022-11-15T19:08:14.588Z,100546.03
2022-11-15T19:13:18.414Z,100533.72
2022-11-15T19:18:20.755Z,100546.06
2022-11-15T19:23:23.156Z,100531.97
2022-11-15T19:28:27.111Z,100524.06
2022-11-15T19:33:28.785Z,100533.75
2022-11-15T19:38:31.176Z,100538.16
2022-11-15T19:43:35.580Z,100542.53
2022-11-15T19:48:38.179Z,100531.13
2022-11-15T19:53:40.703Z,100529.38
2022-11-15T19:58:45.675Z,100533.75
2022-11-15T20:03:48.177Z,100522.34
2022-11-15T20:08:50.391Z,100513.56
2022-11-15T20:13:56.455Z,100530.25
2022-11-15T20:18:58.350Z,100524.97
2022-11-15T20:24:00.267Z,100527.63
2022-11-15T20:29:04.038Z,100522.34
2022-11-15T20:34:06.696Z,100511.78
2022-11-15T20:39:09.174Z,100523.22
2022-11-15T20:44:13.020Z,100524.09
2022-11-15T20:49:14.841Z,100525.84
2022-11-15T20:54:16.910Z,100531.13
2022-11-15T20:59:20.128Z,100518.81
2022-11-15T21:04:23.438Z,100524.09
2022-11-15T21:09:25.773Z,100518.78
2022-11-15T21:14:29.202Z,100516.16
2022-11-15T21:19:35.586Z,100514.41
2022-11-15T21:24:39.053Z,100506.50
2022-11-15T21:29:42.567Z,100489.81
2022-11-15T21:34:44.692Z,100488.94
2022-11-15T21:39:46.762Z,100483.66
2022-11-15T21:44:50.513Z,100485.44
2022-11-15T21:49:52.335Z,100466.09
2022-11-15T21:54:54.374Z,100460.81
2022-11-15T21:59:57.427Z,100471.38
2022-11-15T22:04:59.773Z,100480.13
2022-11-15T22:10:01.649Z,100483.66
2022-11-15T22:15:05.783Z,100474.88
2022-11-15T22:20:29.967Z,100469.59
2022-11-15T22:25:31.181Z,100472.22
2022-11-15T22:30:34.838Z,100464.31
2022-11-15T22:35:38.417Z,100452.00
2022-11-15T22:40:40.409Z,100453.78
2022-11-15T22:45:52.134Z,100454.66
2022-11-15T22:50:54.842Z,100451.13
2022-11-15T22:55:58.553Z,100451.97
2022-11-15T23:01:04.114Z,100445.78
2022-11-15T23:06:07.665Z,100453.66
2022-11-15T23:11:11.433Z,100450.16
2022-11-15T23:16:14.890Z,100446.69
2022-11-15T23:21:18.858Z,100434.38
2022-11-15T23:26:21.483Z,100434.38
2022-11-15T23:31:25.213Z,100429.97
2022-11-15T23:36:29.033Z,100422.94
2022-11-15T23:41:31.166Z,100422.06
2022-11-15T23:46:35.197Z,100424.69
2022-11-15T23:51:37.348Z,100423.81
2022-11-15T23:56:39.878Z,100427.34
